createdAt,value
2023-03-28T00:02:09.808Z,97992.34
2023-03-28T00:07:12.154Z,98003.44
2023-03-28T00:12:13.990Z,97994.09
2023-03-28T00:17:18.034Z,98014.38
2023-03-28T00:22:21.327Z,98005.06
2023-03-28T00:27:23.130Z,98003.44
2023-03-28T00:32:25.249Z,98005.38
2023-03-28T00:37:27.071Z,97999.53
2023-03-28T00:42:29.003Z,97987.78
2023-03-28T00:47:52.809Z,98000.78
2023-03-28T00:53:22.061Z,97996.47
2023-03-28T00:58:27.698Z,97985.31
2023-03-28T01:03:34.148Z,97979.06
2023-03-28T01:08:41.661Z,97987.22
2023-03-28T01:13:50.687Z,97998.91
2023-03-28T01:18:56.852Z,97990.06
2023-03-28T01:24:12.424Z,97999.19
2023-03-28T01:29:34.158Z,97999.66
2023-03-28T01:35:09.328Z,97989.44
2023-03-28T01:40:29.459Z,97993.63
2023-03-28T01:45:51.045Z,98014.72
2023-03-28T01:51:09.851Z,98019.38
2023-03-28T01:56:22.176Z,98010.19
2023-03-28T02:01:31.095Z,98010.28
2023-03-28T02:06:36.457Z,98029.19
2023-03-28T02:11:41.225Z,98023.69
2023-03-28T02:16:50.152Z,98030.75
2023-03-28T02:22:22.814Z,98030.75
2023-03-28T02:27:27.184Z,98021.34
2023-03-28T02:32:49.676Z,98016.94
2023-03-28T02:37:56.622Z,98014.75
2023-03-28T02:43:29.228Z,98026.13
2023-03-28T02:48:54.111Z,98021.00
2023-03-28T02:54:29.591Z,98020.84
2023-03-28T03:00:19.187Z,98025.72
2023-03-28T03:05:22.046Z,98043.41
2023-03-28T03:10:23.782Z,98040.63
2023-03-28T03:15:26.010Z,98041.72
2023-03-28T03:20:33.639Z,98050.44
2023-03-28T03:25:35.956Z,98058.44
2023-03-28T03:31:06.991Z,98050.75
2023-03-28T03:36:27.234Z,98064.47
2023-03-28T03:41:29.357Z,98072.78
2023-03-28T03:46:31.044Z,98066.53
2023-03-28T03:51:34.138Z,98078.19
2023-03-28T03:56:36.402Z,98083.41
2023-03-28T04:01:39.943Z,98088.31
2023-03-28T04:07:13.796Z,98086.69
2023-03-28T04:12:15.783Z,98088.75
2023-03-28T04:17:21.519Z,98102.13
2023-03-28T04:22:23.920Z,98113.94
2023-03-28T04:27:31.374Z,98123.03
2023-03-28T04:32:35.955Z,98125.78
2023-03-28T04:37:43.087Z,98129.72
2023-03-28T04:42:44.792Z,98145.34
2023-03-28T04:47:59.480Z,98144.84
2023-03-28T04:53:01.135Z,98169.03
2023-03-28T04:58:03.898Z,98164.41
2023-03-28T05:03:12.991Z,98167.81
2023-03-28T05:08:29.276Z,98182.06
2023-03-28T05:13:31.128Z,98203.56
2023-03-28T05:18:41.368Z,98205.28
2023-03-28T05:23:43.460Z,98207.84
2023-03-28T05:28:56.974Z,98214.63
2023-03-28T05:33:58.594Z,98223.94
2023-03-28T05:39:10.973Z,98238.19
2023-03-28T05:44:14.989Z,98232.44
2023-03-28T05:49:46.539Z,98244.00
2023-03-28T05:54:50.455Z,98254.66
2023-03-28T05:59:55.951Z,98261.50
2023-03-28T06:04:58.825Z,98262.75
2023-03-28T06:10:01.714Z,98267.34
2023-03-28T06:15:06.269Z,98259.47
2023-03-28T06:20:11.409Z,98270.06
2023-03-28T06:25:13.097Z,98278.50
2023-03-28T06:30:16.107Z,98282.28
2023-03-28T06:35:22.100Z,98299.50
2023-03-28T06:40:23.684Z,98306.03
2023-03-28T06:45:25.454Z,98320.50
2023-03-28T06:50:50.040Z,98323.78
2023-03-28T07:01:17.772Z,98349.00
2023-03-28T07:06:41.329Z,98352.19
2023-03-28T07:11:43.857Z,98362.66
2023-03-28T07:16:45.834Z,98365.06
2023-03-28T07:21:47.605Z,98372.56
2023-03-28T07:26:49.460Z,98377.19
2023-03-28T07:31:51.123Z,98389.66
2023-03-28T07:36:53.736Z,98398.53
2023-03-28T07:42:16.901Z,98409.31
2023-03-28T07:47:18.566Z,98407.59
2023-03-28T07:52:20.760Z,98419.13
2023-03-28T07:57:22.606Z,98420.94
2023-03-28T08:02:36.535Z,98421.41
2023-03-28T08:07:38.237Z,98418.03
2023-03-28T08:12:40.716Z,98430.50
2023-03-28T08:17:43.779Z,98440.41
2023-03-28T08:22:46.517Z,98455.53
2023-03-28T08:28:09.092Z,98447.38
2023-03-28T08:33:10.862Z,98434.59
2023-03-28T08:38:13.234Z,98442.69
2023-03-28T08:43:43.288Z,98449.09
2023-03-28T08:48:46.929Z,98461.13
2023-03-28T08:54:03.972Z,98468.25
2023-03-28T08:59:10.910Z,98469.78
2023-03-28T09:04:35.029Z,98482.75
2023-03-28T09:10:07.857Z,98483.38
2023-03-28T09:15:36.245Z,98487.69
2023-03-28T09:20:38.773Z,98487.16
2023-03-28T09:25:50.658Z,98497.50
2023-03-28T09:30:56.178Z,98500.91
2023-03-28T09:35:57.936Z,98496.47
2023-03-28T09:41:07.199Z,98494.31
2023-03-28T09:46:24.525Z,98508.22
2023-03-28T09:51:46.575Z,98511.06
2023-03-28T09:56:49.720Z,98510.06
2023-03-28T10:02:30.564Z,98504.81
2023-03-28T10:07:44.851Z,98497.81
2023-03-28T10:13:11.806Z,98503.38
2023-03-28T10:18:18.644Z,98502.50
2023-03-28T10:23:25.296Z,98508.66
2023-03-28T10:28:34.983Z,98507.00
2023-03-28T10:33:42.715Z,98502.13
2023-03-28T10:39:29.123Z,98507.03
2023-03-28T10:45:02.072Z,98503.56
2023-03-28T10:50:21.696Z,98512.41
2023-03-28T10:55:36.320Z,98511.69
2023-03-28T11:00:54.150Z,98517.84
2023-03-28T11:06:10.000Z,98516.84
2023-03-28T11:11:55.484Z,98516.13
2023-03-28T11:17:12.548Z,98515.59
2023-03-28T11:23:04.701Z,98516.84
2023-03-28T11:28:20.053Z,98512.78
2023-03-28T11:33:38.624Z,98537.56
2023-03-28T11:38:57.927Z,98547.44
2023-03-28T11:44:12.572Z,98536.38
2023-03-28T11:49:22.952Z,98534.56
2023-03-28T11:54:33.415Z,98533.50
2023-03-28T12:00:05.348Z,98531.63
2023-03-28T12:05:30.621Z,98525.88
2023-03-28T12:10:36.414Z,98530.91
2023-03-28T12:16:03.889Z,98535.81
2023-03-28T12:21:28.798Z,98535.63
2023-03-28T12:26:54.776Z,98536.34
2023-03-28T12:32:23.037Z,98534.66
2023-03-28T12:37:42.137Z,98525.88
2023-03-28T12:42:46.598Z,98517.31
2023-03-28T12:47:53.460Z,98514.28
2023-03-28T12:52:57.973Z,98515.06
2023-03-28T12:58:24.228Z,98514.66
2023-03-28T13:03:35.508Z,98517.91
2023-03-28T13:09:07.653Z,98513.69
2023-03-28T13:14:38.731Z,98503.13
2023-03-28T13:19:43.909Z,98503.53
2023-03-28T13:24:45.751Z,98512.38
2023-03-28T13:30:19.866Z,98500.81
2023-03-28T13:35:44.311Z,98503.84
2023-03-28T13:40:56.197Z,98500.66
2023-03-28T13:46:06.366Z,98502.13
2023-03-28T13:51:13.793Z,98503.16
2023-03-28T13:56:31.044Z,98507.31
2023-03-28T14:01:46.611Z,98502.06
2023-03-28T14:06:49.707Z,98510.75
2023-03-28T14:11:52.245Z,98499.22
2023-03-28T14:16:54.797Z,98496.69
2023-03-28T14:21:57.088Z,98500.56
2023-03-28T14:27:07.330Z,98505.03
2023-03-28T14:32:24.482Z,98499.06
2023-03-28T14:37:29.772Z,98499.97
2023-03-28T14:42:33.137Z,98509.28
2023-03-28T14:47:35.556Z,98504.06
2023-03-28T14:52:41.152Z,98503.88
2023-03-28T14:57:45.336Z,98504.66
2023-03-28T15:02:49.064Z,98499.06
2023-03-28T15:07:57.753Z,98503.59
2023-03-28T15:13:02.743Z,98499.59
2023-03-28T15:18:11.303Z,98509.66
2023-03-28T15:23:17.234Z,98504.91
2023-03-28T15:28:19.793Z,98512.84
2023-03-28T15:33:24.807Z,98499.91
2023-03-28T15:38:27.957Z,98503.38
2023-03-28T15:43:57.661Z,98495.44
2023-03-28T15:49:01.231Z,98489.06
2023-03-28T15:54:03.210Z,98498.31
2023-03-28T15:59:11.924Z,98498.72
2023-03-28T16:04:22.992Z,98493.91
2023-03-28T16:09:26.268Z,98493.84
2023-03-28T16:14:28.465Z,98481.03
2023-03-28T16:19:35.231Z,98482.03
2023-03-28T16:24:37.755Z,98478.09
2023-03-28T16:29:39.671Z,98475.41
2023-03-28T16:34:43.237Z,98472.25
2023-03-28T16:39:45.182Z,98476.75
2023-03-28T16:44:47.049Z,98475.19
2023-03-28T16:49:48.844Z,98478.78
2023-03-28T16:54:51.005Z,98473.75
2023-03-28T16:59:52.863Z,98464.91
2023-03-28T17:04:55.846Z,98457.91
2023-03-28T17:09:57.716Z,98458.41
2023-03-28T17:14:59.703Z,98463.25
2023-03-28T17:20:01.869Z,98458.47
2023-03-28T17:25:04.382Z,98458.91
2023-03-28T17:30:07.251Z,98451.50
2023-03-28T17:35:11.437Z,98453.94
2023-03-28T17:40:14.649Z,98450.75
2023-03-28T17:45:16.562Z,98446.47
2023-03-28T17:50:18.453Z,98441.19
2023-03-28T17:55:20.444Z,98442.09
2023-03-28T18:00:22.424Z,98451.19
2023-03-28T18:05:24.612Z,98447.41
2023-03-28T18:10:29.877Z,98434.13
2023-03-28T18:15:31.726Z,98437.81
2023-03-28T18:20:33.512Z,98439.63
2023-03-28T18:25:37.260Z,98437.41
2023-03-28T18:30:40.560Z,98445.78
2023-03-28T18:35:42.404Z,98436.41
2023-03-28T18:40:44.460Z,98431.63
2023-03-28T18:45:54.110Z,98443.00
2023-03-28T18:50:58.194Z,98446.03
2023-03-28T18:56:00.180Z,98441.03
2023-03-28T19:01:03.434Z,98434.66
2023-03-28T19:06:06.514Z,98430.63
2023-03-28T19:11:11.845Z,98434.28
2023-03-28T19:16:15.653Z,98427.16
2023-03-28T19:21:17.865Z,98422.25
2023-03-28T19:26:19.546Z,98423.06
2023-03-28T19:31:23.632Z,98426.41
2023-03-28T19:36:25.384Z,98422.94
2023-03-28T19:41:27.420Z,98418.03
2023-03-28T19:46:35.463Z,98413.47
2023-03-28T19:51:37.987Z,98413.53
2023-03-28T19:56:39.817Z,98407.53
2023-03-28T20:01:41.565Z,98400.88
2023-03-28T20:06:43.329Z,98394.66
2023-03-28T20:11:45.038Z,98380.88
2023-03-28T20:16:47.962Z,98374.38
2023-03-28T20:21:49.595Z,98365.75
2023-03-28T20:26:51.666Z,98356.44
2023-03-28T20:31:54.145Z,98357.78
2023-03-28T20:36:56.833Z,98357.66
2023-03-28T20:42:02.983Z,98340.53
2023-03-28T20:47:08.776Z,98355.03
2023-03-28T20:52:10.852Z,98358.97
2023-03-28T20:57:12.463Z,98359.78
2023-03-28T21:02:14.831Z,98351.66
2023-03-28T21:07:16.426Z,98341.34
2023-03-28T21:12:18.045Z,98332.09
2023-03-28T21:17:26.135Z,98336.16
2023-03-28T21:22:28.270Z,98323.19
2023-03-28T21:27:29.972Z,98326.00
2023-03-28T21:32:33.122Z,98328.47
2023-03-28T21:37:35.648Z,98320.84
2023-03-28T21:42:37.887Z,98324.78
2023-03-28T21:47:41.506Z,98323.75
2023-03-28T21:52:43.203Z,98317.44
2023-03-28T21:57:44.832Z,98305.94
2023-03-28T22:02:46.536Z,98305.09
2023-03-28T22:07:51.772Z,98291.22
2023-03-28T22:12:54.178Z,98279.16
2023-03-28T22:17:58.161Z,98281.38
2023-03-28T22:23:01.151Z,98279.19
2023-03-28T22:28:04.826Z,98280.47
2023-03-28T22:33:09.016Z,98274.19
2023-03-28T22:38:11.063Z,98270.06
2023-03-28T22:43:12.730Z,98273.34
2023-03-28T22:48:14.640Z,98264.97
2023-03-28T22:53:16.391Z,98260.50
2023-03-28T22:58:19.193Z,98261.75
2023-03-28T23:03:20.966Z,98253.78
2023-03-28T23:08:22.631Z,98249.19
2023-03-28T23:13:24.416Z,98258.03
2023-03-28T23:18:26.025Z,98250.09
2023-03-28T23:23:27.673Z,98243.50
2023-03-28T23:28:29.320Z,98242.97
2023-03-28T23:33:31.136Z,98237.97
2023-03-28T23:38:32.767Z,98236.22
2023-03-28T23:43:34.545Z,98229.31
2023-03-28T23:48:36.266Z,98224.28
2023-03-28T23:53:37.914Z,98225.03
2023-03-28T23:58:39.501Z,98213.19
